Time;durP1;ratioP1;P1;durP2;ratioP2;P2;SDS_P1;SDS_P2;PMS_P1;PMS_P2;Temp;Humidity;BMP_temperature;BMP_pressure;BME280_temperature;BME280_humidity;BME280_pressure;Samples;Min_cycle;Max_cycle;Signal;HPM_P1;HPM_P2
2021/08/20 04:01:00;;;;;;;3.43;3.17;;;15.30;96.30;;;;;;5678465;23;20514;-78
2021/08/20 04:03:25;;;;;;;4.47;2.80;;;15.30;96.30;;;;;;4956455;28;20410;-78
2021/08/20 04:05:51;;;;;;;4.27;3.60;;;15.30;96.30;;;;;;4957210;28;20222;-78
2021/08/20 04:08:17;;;;;;;4.37;3.40;;;15.30;96.30;;;;;;4956543;28;20647;-78
2021/08/20 04:10:44;;;;;;;7.50;3.80;;;15.40;96.30;;;;;;4955949;28;20194;-78
2021/08/20 04:13:11;;;;;;;3.73;3.10;;;15.30;96.30;;;;;;4956056;28;20419;-78
2021/08/20 04:15:37;;;;;;;3.33;2.83;;;15.30;96.30;;;;;;4953857;29;20421;-78
2021/08/20 04:18:04;;;;;;;3.70;3.10;;;15.30;96.30;;;;;;4954283;28;20462;-78
2021/08/20 04:23:05;;;;;;;4.00;2.40;;;15.40;96.30;;;;;;5218541;23;20485;-78
2021/08/20 04:25:31;;;;;;;7.50;3.50;;;15.40;96.30;;;;;;4954136;28;20419;-78
2021/08/20 04:27:56;;;;;;;5.03;3.60;;;15.40;96.30;;;;;;4953902;28;20418;-78
2021/08/20 04:30:23;;;;;;;3.83;3.40;;;15.40;96.30;;;;;;4954049;28;20174;-79
2021/08/20 04:32:49;;;;;;;9.00;3.80;;;15.40;96.30;;;;;;4953409;28;20623;-78
2021/08/20 04:35:15;;;;;;;3.70;3.40;;;15.40;96.30;;;;;;4953964;28;20545;-78
2021/08/20 04:37:40;;;;;;;3.67;3.37;;;15.40;96.30;;;;;;4957525;28;20934;-78
2021/08/20 04:40:09;;;;;;;3.40;3.10;;;15.40;96.30;;;;;;4957679;28;20182;-78
2021/08/20 04:42:35;;;;;;;3.70;3.40;;;15.40;96.30;;;;;;4957091;28;20215;-78
2021/08/20 04:45:01;;;;;;;4.97;3.60;;;15.40;96.30;;;;;;4957656;28;20414;-78
2021/08/20 04:47:26;;;;;;;3.93;3.40;;;15.50;96.30;;;;;;4957640;28;20417;-78
2021/08/20 04:49:52;;;;;;;5.70;3.70;;;15.50;96.30;;;;;;4957612;28;20253;-79
2021/08/20 04:52:19;;;;;;;3.63;3.33;;;15.50;96.30;;;;;;4956939;28;20198;-78
2021/08/20 04:54:45;;;;;;;4.33;3.30;;;15.50;96.30;;;;;;4957445;28;20646;-78
2021/08/20 04:57:10;;;;;;;7.73;3.17;;;15.50;96.30;;;;;;4957445;28;20450;-79
2021/08/20 04:59:36;;;;;;;4.30;3.77;;;15.50;96.30;;;;;;4957419;28;20190;-78
2021/08/20 05:02:02;;;;;;;5.03;3.90;;;15.50;96.30;;;;;;4956780;28;20285;-78
2021/08/20 05:04:28;;;;;;;4.30;3.87;;;15.50;96.30;;;;;;4957351;28;20197;-78
2021/08/20 05:06:54;;;;;;;4.70;4.20;;;15.50;96.30;;;;;;4957320;28;20961;-79
2021/08/20 05:09:20;;;;;;;4.47;4.10;;;15.50;96.30;;;;;;4957327;28;20179;-79
2021/08/20 05:11:45;;;;;;;7.30;4.33;;;15.40;96.30;;;;;;4957592;28;20239;-79
2021/08/20 05:14:11;;;;;;;4.47;4.07;;;15.40;96.30;;;;;;4961143;28;20179;-79
2021/08/20 05:16:36;;;;;;;4.30;3.87;;;15.40;96.30;;;;;;4959055;28;20225;-79
2021/08/20 05:19:02;;;;;;;6.30;4.40;;;15.40;96.30;;;;;;4958718;28;20203;-79
2021/08/20 05:21:27;;;;;;;5.63;4.37;;;15.40;96.30;;;;;;4956795;28;20211;-80
2021/08/20 05:23:53;;;;;;;5.10;4.17;;;15.40;96.30;;;;;;4958799;28;20206;-79
2021/08/20 05:26:18;;;;;;;4.40;3.97;;;15.40;96.30;;;;;;4958966;28;20574;-80
2021/08/20 05:28:44;;;;;;;4.83;4.27;;;15.40;96.30;;;;;;4957259;29;20190;-79
2021/08/20 05:31:09;;;;;;;6.40;4.07;;;15.30;96.30;;;;;;4957192;29;20346;-79
2021/08/20 05:33:35;;;;;;;9.20;3.57;;;15.40;96.30;;;;;;4958030;28;20662;-79
2021/08/20 05:36:00;;;;;;;4.20;3.80;;;15.40;96.30;;;;;;4956768;29;20230;-79
2021/08/20 05:38:26;;;;;;;4.30;3.90;;;15.40;96.30;;;;;;4957784;28;20635;-79
2021/08/20 05:40:51;;;;;;;4.50;4.10;;;15.50;96.30;;;;;;4957111;28;20531;-79
2021/08/20 05:43:17;;;;;;;4.30;3.90;;;15.60;96.30;;;;;;4955250;29;20181;-79
2021/08/20 05:45:42;;;;;;;5.10;4.00;;;15.60;96.30;;;;;;4955712;28;20237;-79
2021/08/20 05:48:08;;;;;;;4.00;3.30;;;15.60;96.30;;;;;;4956597;28;20187;-79
2021/08/20 05:50:35;;;;;;;5.47;3.80;;;15.60;96.30;;;;;;4956413;28;20195;-79
2021/08/20 05:53:00;;;;;;;4.57;4.17;;;15.70;96.30;;;;;;4956052;28;20415;-79
2021/08/20 05:55:26;;;;;;;5.00;4.57;;;15.70;96.30;;;;;;4956622;28;20496;-78
2021/08/20 05:57:52;;;;;;;5.20;4.70;;;15.80;96.30;;;;;;4955241;29;20203;-79
2021/08/20 06:00:18;;;;;;;5.00;4.50;;;15.80;96.30;;;;;;4956464;28;20167;-79
2021/08/20 06:02:44;;;;;;;8.50;4.43;;;15.80;96.30;;;;;;4955706;28;20558;-78
2021/08/20 06:05:10;;;;;;;5.20;4.70;;;15.80;96.30;;;;;;4956311;28;20214;-79
2021/08/20 06:07:36;;;;;;;5.03;4.53;;;15.80;96.30;;;;;;4956336;28;20175;-78
2021/08/20 06:10:03;;;;;;;5.63;5.13;;;15.80;96.30;;;;;;4956533;28;20415;-78
2021/08/20 06:12:30;;;;;;;5.13;4.73;;;15.90;96.30;;;;;;4955841;28;20935;-79
2021/08/20 06:14:56;;;;;;;8.00;5.00;;;16.00;96.30;;;;;;4958413;28;20418;-79
2021/08/20 06:17:22;;;;;;;6.00;4.97;;;16.00;96.30;;;;;;4957750;28;20415;-79
2021/08/20 06:19:47;;;;;;;7.70;5.57;;;16.00;96.30;;;;;;4955979;28;20763;-78
2021/08/20 06:22:13;;;;;;;6.03;5.20;;;16.00;96.30;;;;;;4955041;28;20202;-78
2021/08/20 06:24:38;;;;;;;6.50;5.90;;;16.00;96.30;;;;;;4956004;28;20353;-77
2021/08/20 06:27:05;;;;;;;5.70;5.03;;;16.00;96.30;;;;;;4955938;28;20465;-79
2021/08/20 06:29:30;;;;;;;5.67;5.13;;;16.00;96.30;;;;;;4954784;28;20185;-79
2021/08/20 06:31:56;;;;;;;6.47;5.77;;;16.00;96.30;;;;;;4955198;28;20514;-79
2021/08/20 06:34:21;;;;;;;6.97;5.90;;;16.10;96.30;;;;;;4956481;28;20175;-79
2021/08/20 06:36:47;;;;;;;7.13;5.20;;;16.10;96.30;;;;;;4957658;28;20182;-79
2021/08/20 06:39:13;;;;;;;6.40;5.53;;;16.20;96.30;;;;;;4957756;28;20536;-79
2021/08/20 06:41:38;;;;;;;13.03;6.23;;;16.20;96.30;;;;;;4956044;28;20199;-79
2021/08/20 06:44:04;;;;;;;5.47;4.97;;;16.30;96.30;;;;;;4956704;28;20410;-79
2021/08/20 06:46:30;;;;;;;7.70;5.23;;;16.40;96.30;;;;;;4957729;28;20179;-79
2021/08/20 06:48:55;;;;;;;6.93;4.90;;;16.40;96.30;;;;;;4957628;28;20605;-79
2021/08/20 06:51:21;;;;;;;6.57;5.87;;;16.50;96.30;;;;;;4956726;28;20210;-79
2021/08/20 06:53:46;;;;;;;4.90;4.43;;;16.50;96.30;;;;;;4956583;28;20262;-79
2021/08/20 06:56:12;;;;;;;6.20;5.00;;;16.60;96.30;;;;;;4956937;28;20186;-79
2021/08/20 06:58:37;;;;;;;6.00;5.40;;;16.70;96.30;;;;;;4956123;28;20211;-79
2021/08/20 07:01:03;;;;;;;5.77;5.17;;;16.70;96.30;;;;;;4956146;28;20195;-79
2021/08/20 07:03:29;;;;;;;5.87;5.30;;;16.80;96.30;;;;;;4954078;28;20236;-79
2021/08/20 07:05:54;;;;;;;6.53;5.90;;;16.80;96.30;;;;;;4955551;28;20183;-79
2021/08/20 07:08:20;;;;;;;7.37;5.50;;;16.80;96.30;;;;;;4955307;28;20453;-79
2021/08/20 07:10:45;;;;;;;6.33;5.70;;;16.90;96.30;;;;;;4953810;28;20286;-78
2021/08/20 07:13:11;;;;;;;7.33;5.03;;;16.80;96.30;;;;;;4954621;28;20241;-79
2021/08/20 07:15:36;;;;;;;6.30;5.10;;;16.90;96.30;;;;;;4955011;28;20215;-78
2021/08/20 07:18:02;;;;;;;5.67;5.17;;;17.00;96.30;;;;;;4957107;28;20207;-80
2021/08/20 07:20:27;;;;;;;5.43;4.93;;;17.10;96.30;;;;;;4954830;28;20747;-79
2021/08/20 07:22:53;;;;;;;6.40;4.50;;;17.30;96.30;;;;;;4954375;28;20187;-79
2021/08/20 07:25:18;;;;;;;5.67;5.17;;;17.40;96.30;;;;;;4954858;28;20182;-79
2021/08/20 07:27:44;;;;;;;5.70;5.13;;;17.50;96.30;;;;;;4954873;28;20183;-79
2021/08/20 07:30:10;;;;;;;5.10;4.60;;;17.50;96.30;;;;;;4954646;28;20186;-79
2021/08/20 07:32:36;;;;;;;6.37;4.93;;;17.30;96.30;;;;;;4954102;28;20226;-79
2021/08/20 07:35:01;;;;;;;7.87;4.43;;;17.20;96.30;;;;;;4954684;28;20414;-79
2021/08/20 07:37:27;;;;;;;4.90;4.23;;;17.20;96.30;;;;;;4953427;29;20178;-79
2021/08/20 07:39:53;;;;;;;6.03;4.33;;;17.20;96.30;;;;;;4954755;28;20369;-79
2021/08/20 07:42:19;;;;;;;5.53;4.60;;;17.40;96.30;;;;;;4954162;28;20269;-79
2021/08/20 07:44:45;;;;;;;6.27;4.90;;;17.50;96.30;;;;;;4954858;28;20532;-79
2021/08/20 07:47:10;;;;;;;6.97;4.50;;;17.60;96.30;;;;;;4954494;28;20501;-79
2021/08/20 07:49:36;;;;;;;5.20;4.10;;;17.70;96.30;;;;;;4953114;29;20179;-79
2021/08/20 07:52:02;;;;;;;4.10;3.70;;;17.50;96.30;;;;;;4953754;28;20294;-79
2021/08/20 07:54:27;;;;;;;6.00;4.10;;;17.40;96.30;;;;;;4953038;29;20186;-79
2021/08/20 07:56:53;;;;;;;4.30;3.90;;;17.30;96.30;;;;;;4954318;28;20460;-79
2021/08/20 07:59:19;;;;;;;4.10;3.23;;;17.20;96.30;;;;;;4953002;29;20741;-79
2021/08/20 08:01:44;;;;;;;3.60;3.30;;;17.00;96.30;;;;;;4953667;28;20286;-79
2021/08/20 08:04:10;;;;;;;3.83;3.43;;;16.90;96.30;;;;;;4954256;28;20263;-79
2021/08/20 08:06:35;;;;;;;3.30;2.80;;;16.90;96.30;;;;;;4953228;29;20179;-79
2021/08/20 08:09:01;;;;;;;5.53;3.20;;;17.00;96.30;;;;;;4954240;28;20524;-79
2021/08/20 08:11:33;;;;;;;4.10;3.20;;;17.10;96.30;;;;;;4953456;28;20222;-79
2021/08/20 08:14:03;;;;;;;6.73;3.00;;;17.20;96.30;;;;;;4954291;28;20494;-79
2021/08/20 08:16:34;;;;;;;3.30;2.90;;;17.50;96.30;;;;;;4954478;28;20411;-78
2021/08/20 08:19:00;;;;;;;4.00;3.27;;;17.50;96.30;;;;;;4956158;28;20454;-79
2021/08/20 08:21:26;;;;;;;3.80;3.00;;;17.60;96.30;;;;;;4952477;29;20434;-79
2021/08/20 08:23:51;;;;;;;3.83;2.47;;;17.50;96.30;;;;;;4954158;28;20440;-79
2021/08/20 08:26:17;;;;;;;2.97;2.67;;;17.70;96.30;;;;;;4954012;28;20171;-80
2021/08/20 08:28:43;;;;;;;3.43;2.40;;;17.70;96.30;;;;;;4954090;28;20670;-80
2021/08/20 08:31:08;;;;;;;2.27;1.93;;;17.90;96.30;;;;;;4954044;28;20199;-80
2021/08/20 08:33:33;;;;;;;3.77;2.57;;;17.90;96.30;;;;;;4954219;28;20183;-79
2021/08/20 08:35:59;;;;;;;5.50;2.77;;;17.90;96.30;;;;;;4953981;28;20178;-79
2021/08/20 08:38:24;;;;;;;3.60;2.33;;;17.90;96.30;;;;;;4953911;28;20206;-79
2021/08/20 08:40:50;;;;;;;3.13;2.50;;;18.10;96.30;;;;;;4953846;28;20202;-79
2021/08/20 08:43:16;;;;;;;6.27;2.67;;;18.40;96.30;;;;;;4953395;28;20226;-79
2021/08/20 08:45:43;;;;;;;3.77;3.47;;;18.70;96.30;;;;;;4952591;28;20663;-80
2021/08/20 08:48:10;;;;;;;3.40;2.47;;;19.00;96.30;;;;;;4953754;28;20460;-79
2021/08/20 08:50:37;;;;;;;4.00;2.60;;;19.50;96.30;;;;;;4953816;28;20431;-79
2021/08/20 08:53:04;;;;;;;2.57;2.37;;;19.70;96.30;;;;;;4953288;28;20438;-78
2021/08/20 08:55:30;;;;;;;3.17;2.10;;;19.80;96.30;;;;;;4953843;28;20418;-78
2021/08/20 08:57:56;;;;;;;2.47;2.00;;;19.60;96.30;;;;;;4953672;28;20461;-78
2021/08/20 09:00:31;;;;;;;2.17;1.97;;;19.20;96.30;;;;;;4953573;28;20414;-78
2021/08/20 09:02:57;;;;;;;2.83;2.60;;;19.10;96.30;;;;;;4953115;28;20242;-78
2021/08/20 09:05:23;;;;;;;2.83;2.20;;;19.00;96.30;;;;;;4953639;28;20423;-78
2021/08/20 09:07:54;;;;;;;2.60;2.40;;;18.90;96.30;;;;;;4953730;28;20195;-78
2021/08/20 09:10:25;;;;;;;3.60;2.13;;;18.90;96.30;;;;;;4958123;28;20175;-78
2021/08/20 09:12:59;;;;;;;3.63;2.30;;;18.90;96.30;;;;;;4955464;28;20509;-78
2021/08/20 09:15:30;;;;;;;2.10;1.90;;;19.70;96.30;;;;;;4966706;28;20457;-78
2021/08/20 09:18:01;;;;;;;3.00;2.03;;;20.80;96.30;;;;;;4957800;28;20454;-78
2021/08/20 09:20:29;;;;;;;2.83;2.10;;;21.50;96.30;;;;;;4958133;28;20435;-79
2021/08/20 09:23:00;;;;;;;3.27;2.10;;;22.00;96.30;;;;;;4959253;28;20453;-78
2021/08/20 09:25:40;;;;;;;3.40;2.13;;;23.10;96.30;;;;;;4960985;29;20430;-79
2021/08/20 09:28:17;;;;;;;2.60;2.30;;;24.20;96.30;;;;;;4961095;28;20466;-79
2021/08/20 09:30:59;;;;;;;2.23;2.03;;;24.40;93.20;;;;;;4960473;28;20844;-79
2021/08/20 09:33:34;;;;;;;8.73;2.30;;;23.70;96.30;;;;;;4959781;29;20414;-79
2021/08/20 09:35:59;;;;;;;4.67;2.50;;;23.50;96.30;;;;;;4960488;28;20417;-79
2021/08/20 09:38:25;;;;;;;3.60;2.57;;;23.00;96.30;;;;;;4958638;29;20457;-79
2021/08/20 09:40:56;;;;;;;2.77;2.17;;;22.20;96.30;;;;;;4959630;28;20202;-79
2021/08/20 09:43:32;;;;;;;4.23;2.27;;;22.00;96.30;;;;;;4960399;28;20911;-79
2021/08/20 09:46:17;;;;;;;3.20;2.57;;;22.00;96.30;;;;;;4960548;28;20422;-79
2021/08/20 09:48:51;;;;;;;2.90;2.60;;;22.00;96.30;;;;;;4960648;28;20419;-79
2021/08/20 09:51:41;;;;;;;2.40;2.20;;;21.70;96.30;;;;;;4960910;28;20521;-79
2021/08/20 09:54:12;;;;;;;2.20;2.00;;;21.70;96.30;;;;;;4958338;29;20418;-79
2021/08/20 09:56:38;;;;;;;2.43;2.23;;;21.50;96.30;;;;;;4957006;29;20518;-79
2021/08/20 09:59:06;;;;;;;3.30;2.40;;;21.40;96.30;;;;;;4960646;28;20462;-79
2021/08/20 10:01:37;;;;;;;3.13;2.67;;;20.80;96.30;;;;;;4960445;28;20435;-78
2021/08/20 10:04:05;;;;;;;2.70;2.30;;;20.40;96.30;;;;;;4959099;29;20418;-79
2021/08/20 10:06:37;;;;;;;3.50;2.60;;;20.30;96.30;;;;;;4958403;29;20473;-78
2021/08/20 10:09:09;;;;;;;5.57;2.20;;;20.30;96.30;;;;;;4958443;28;20423;-79
2021/08/20 10:11:39;;;;;;;2.50;2.27;;;20.40;96.30;;;;;;4957214;28;20434;-79
2021/08/20 10:14:05;;;;;;;2.60;2.13;;;20.10;96.30;;;;;;4958730;28;20421;-79
2021/08/20 10:16:33;;;;;;;3.93;2.80;;;19.80;96.30;;;;;;4959440;28;20926;-79
2021/08/20 10:19:00;;;;;;;2.47;2.27;;;19.90;96.30;;;;;;4959072;28;20976;-79
2021/08/20 10:21:28;;;;;;;3.00;2.30;;;20.00;96.30;;;;;;4956670;29;20439;-78
2021/08/20 10:23:54;;;;;;;3.40;2.50;;;20.00;96.30;;;;;;4959831;28;20419;-78
2021/08/20 10:26:21;;;;;;;3.67;2.30;;;19.90;96.30;;;;;;4958828;28;20466;-79
2021/08/20 10:28:47;;;;;;;3.23;2.07;;;19.90;96.30;;;;;;4958643;28;20649;-78
2021/08/20 12:22:41;;;;;;;2.23;2.00;;;24.50;87.60;;;;;;5988169;23;20471;-79
2021/08/20 12:25:19;;;;;;;3.00;2.30;;;23.90;87.80;;;;;;4955508;28;20429;-79
2021/08/20 12:27:46;;;;;;;2.47;2.27;;;23.70;88.90;;;;;;4955249;28;20942;-79
2021/08/20 12:30:14;;;;;;;2.63;2.43;;;23.30;86.90;;;;;;4953974;28;20418;-79
2021/08/20 12:32:54;;;;;;;2.60;2.40;;;22.90;89.80;;;;;;4953478;28;20415;-79
2021/08/20 12:35:20;;;;;;;2.37;2.17;;;22.70;92.20;;;;;;4952795;28;20437;-79
2021/08/20 12:38:07;;;;;;;2.50;2.23;;;22.30;92.80;;;;;;4954834;28;20421;-78
2021/08/20 12:40:35;;;;;;;3.00;2.30;;;21.80;93.90;;;;;;4955013;28;20461;-80
2021/08/20 12:43:00;;;;;;;4.90;2.40;;;21.80;93.90;;;;;;4951963;28;20419;-80
2021/08/20 12:45:26;;;;;;;2.77;2.23;;;21.50;96.30;;;;;;4954087;28;20508;-79
2021/08/20 12:48:06;;;;;;;2.40;2.20;;;21.10;96.30;;;;;;4958012;28;20175;-79
2021/08/20 12:50:34;;;;;;;3.77;3.47;;;21.10;96.30;;;;;;4960828;28;20266;-79
2021/08/20 12:53:08;;;;;;;6.70;3.60;;;20.40;96.30;;;;;;4968121;28;20411;-79
2021/08/20 12:55:40;;;;;;;6.70;3.47;;;19.60;96.30;;;;;;4966446;29;20433;-79
2021/08/20 12:58:07;;;;;;;4.73;3.90;;;19.20;96.30;;;;;;4957449;29;20462;-80
2021/08/20 13:00:36;;;;;;;9.13;3.80;;;19.20;96.30;;;;;;4958193;28;20442;-80
2021/08/20 13:03:06;;;;;;;3.73;3.43;;;19.40;96.30;;;;;;4957637;28;20435;-80
2021/08/20 13:05:32;;;;;;;5.10;4.47;;;19.60;96.30;;;;;;4957896;28;20410;-79
2021/08/20 13:07:58;;;;;;;5.57;3.80;;;20.40;96.30;;;;;;4957548;28;20494;-79
2021/08/20 13:10:24;;;;;;;5.10;3.50;;;20.60;96.30;;;;;;4957474;28;20167;-79
2021/08/20 13:12:50;;;;;;;16.03;4.23;;;21.20;96.30;;;;;;4956848;28;20425;-80
2021/08/20 13:15:15;;;;;;;6.97;3.27;;;21.70;96.30;;;;;;4957353;28;20183;-80
2021/08/20 13:17:45;;;;;;;3.87;3.40;;;22.00;96.30;;;;;;4957052;28;20212;-79
2021/08/20 13:20:12;;;;;;;9.80;3.67;;;22.30;96.30;;;;;;4957104;28;20171;-79
2021/08/20 13:22:44;;;;;;;3.30;3.00;;;22.80;96.30;;;;;;4956316;28;20438;-80
2021/08/20 13:25:10;;;;;;;3.37;3.07;;;23.10;96.30;;;;;;4955665;28;20560;-79
2021/08/20 13:27:36;;;;;;;3.53;3.23;;;22.80;96.30;;;;;;4957190;28;20459;-79
2021/08/20 13:30:02;;;;;;;4.00;3.10;;;22.20;96.30;;;;;;4956953;28;20418;-78
2021/08/20 13:32:28;;;;;;;4.13;3.73;;;22.00;96.30;;;;;;4956273;28;20652;-78
2021/08/20 13:35:01;;;;;;;3.93;3.40;;;22.70;96.30;;;;;;4956828;28;20423;-78
2021/08/20 13:37:26;;;;;;;4.33;3.93;;;22.90;96.30;;;;;;4957145;28;20179;-78
2021/08/20 13:39:52;;;;;;;3.60;3.03;;;23.50;96.30;;;;;;4957287;28;20957;-79
2021/08/20 13:42:17;;;;;;;4.03;3.63;;;22.80;96.30;;;;;;4955071;29;20565;-79
2021/08/20 13:44:43;;;;;;;4.03;3.20;;;22.70;96.30;;;;;;4956990;28;20178;-79
2021/08/20 13:47:08;;;;;;;3.27;2.93;;;22.80;96.30;;;;;;4956987;28;20171;-79
2021/08/20 13:49:34;;;;;;;4.33;3.33;;;22.40;96.30;;;;;;4955340;29;20225;-79
2021/08/20 13:51:59;;;;;;;3.77;3.40;;;22.30;96.30;;;;;;4955983;28;20679;-79
2021/08/20 13:54:25;;;;;;;3.10;2.80;;;22.80;96.30;;;;;;4956675;28;20463;-79
2021/08/20 13:56:51;;;;;;;4.73;3.50;;;23.80;96.30;;;;;;4955275;28;20546;-79
2021/08/20 13:59:16;;;;;;;4.40;4.00;;;24.40;93.50;;;;;;4956433;28;20225;-79
2021/08/20 14:01:42;;;;;;;3.73;3.17;;;23.80;95.50;;;;;;4955689;28;20855;-79
2021/08/20 14:04:07;;;;;;;3.17;2.87;;;23.00;96.30;;;;;;4956317;28;20659;-78
2021/08/20 14:06:33;;;;;;;4.87;3.43;;;22.00;96.30;;;;;;4956303;28;20519;-78
2021/08/20 14:09:00;;;;;;;4.60;4.00;;;21.50;96.30;;;;;;4955655;28;20175;-78
2021/08/20 14:11:25;;;;;;;4.80;3.77;;;21.30;96.30;;;;;;4955464;28;20191;-78
2021/08/20 14:13:51;;;;;;;4.40;4.00;;;21.30;96.30;;;;;;4956111;28;20406;-79
2021/08/20 14:16:16;;;;;;;4.30;3.90;;;21.50;96.30;;;;;;4956146;28;20179;-79
2021/08/20 14:18:42;;;;;;;4.60;3.63;;;21.70;96.30;;;;;;4955988;28;20213;-79
2021/08/20 14:21:07;;;;;;;5.77;4.10;;;21.80;96.30;;;;;;4955852;28;20274;-78
2021/08/20 14:23:34;;;;;;;6.93;4.17;;;21.80;96.30;;;;;;4954803;28;20187;-79
2021/08/20 14:25:59;;;;;;;5.97;4.30;;;21.80;96.30;;;;;;4955822;28;20171;-79
2021/08/20 14:28:25;;;;;;;3.80;3.43;;;21.70;96.30;;;;;;4955805;28;20415;-79
2021/08/20 14:30:50;;;;;;;3.30;3.00;;;21.80;96.30;;;;;;4955737;28;20198;-78
2021/08/20 14:33:19;;;;;;;3.27;2.97;;;21.90;96.30;;;;;;4955560;28;20615;-78
2021/08/20 14:35:45;;;;;;;6.53;2.63;;;21.90;96.30;;;;;;4954458;28;20194;-79
2021/08/20 14:38:10;;;;;;;12.53;3.07;;;21.60;96.30;;;;;;4954202;29;20477;-78
2021/08/20 14:40:36;;;;;;;3.30;3.00;;;21.30;96.30;;;;;;4955591;28;20725;-78
2021/08/20 14:43:02;;;;;;;3.40;3.10;;;21.20;96.30;;;;;;4955041;28;20195;-78
2021/08/20 14:45:28;;;;;;;3.80;3.13;;;21.20;96.30;;;;;;4955636;28;20237;-78
2021/08/20 14:47:54;;;;;;;2.90;2.57;;;20.90;96.30;;;;;;4954215;28;20927;-78
2021/08/20 14:50:20;;;;;;;5.93;2.77;;;20.60;96.30;;;;;;4955387;28;20175;-79
2021/08/20 14:52:45;;;;;;;6.10;3.30;;;20.70;96.30;;;;;;4954722;28;20183;-78
2021/08/20 14:55:11;;;;;;;3.37;2.87;;;20.80;96.30;;;;;;4955409;28;20585;-78
2021/08/20 14:57:37;;;;;;;3.43;3.13;;;20.90;96.30;;;;;;4955455;28;20185;-78
2021/08/20 15:00:07;;;;;;;3.60;3.27;;;21.40;96.30;;;;;;4955166;28;20175;-78
2021/08/20 15:02:32;;;;;;;4.97;3.67;;;22.30;96.30;;;;;;4954669;28;20274;-79
2021/08/20 15:04:59;;;;;;;4.10;3.70;;;22.80;96.30;;;;;;4955289;28;20958;-79
2021/08/20 15:07:26;;;;;;;5.10;4.10;;;23.10;96.30;;;;;;4955109;29;20226;-78
2021/08/20 15:09:51;;;;;;;4.10;3.70;;;23.00;94.20;;;;;;4955086;28;20418;-78
2021/08/20 15:12:17;;;;;;;3.70;3.40;;;22.90;94.50;;;;;;4953485;28;20494;-78
2021/08/20 15:14:46;;;;;;;5.03;3.37;;;22.00;95.50;;;;;;4955548;28;20175;-79
2021/08/20 15:17:12;;;;;;;7.80;3.40;;;21.40;96.30;;;;;;4955069;28;20233;-78
2021/08/20 15:19:39;;;;;;;4.17;2.97;;;21.50;96.30;;;;;;4954035;28;20470;-78
2021/08/20 15:22:06;;;;;;;6.43;3.17;;;21.30;96.30;;;;;;4952931;28;20950;-78
2021/08/20 15:24:33;;;;;;;5.57;3.07;;;21.00;96.30;;;;;;4955107;28;20918;-78
2021/08/20 15:26:59;;;;;;;3.20;2.87;;;20.90;96.30;;;;;;4954053;29;20855;-78
2021/08/20 15:29:25;;;;;;;3.33;3.03;;;20.80;96.30;;;;;;4955563;28;20422;-78
2021/08/20 15:31:51;;;;;;;3.30;3.00;;;20.80;96.30;;;;;;4954235;28;20973;-79
2021/08/20 15:34:16;;;;;;;2.80;2.57;;;20.70;96.30;;;;;;4954574;28;20211;-78
2021/08/20 15:36:42;;;;;;;5.40;2.97;;;20.70;96.30;;;;;;4954615;28;20175;-78
2021/08/20 15:39:08;;;;;;;3.00;2.80;;;20.70;96.30;;;;;;4954701;28;20218;-78
2021/08/20 15:41:34;;;;;;;3.57;3.27;;;20.90;96.30;;;;;;4953857;28;20195;-78
2021/08/20 15:44:02;;;;;;;3.93;3.60;;;21.40;96.30;;;;;;4954476;28;20259;-79
2021/08/20 15:46:29;;;;;;;3.83;3.37;;;21.70;96.30;;;;;;4954459;28;20673;-79
2021/08/20 15:48:55;;;;;;;3.70;2.90;;;21.90;96.20;;;;;;4953058;28;20860;-78
2021/08/20 15:51:20;;;;;;;3.80;3.30;;;22.40;95.80;;;;;;4954103;28;20434;-78
2021/08/20 15:53:47;;;;;;;6.70;3.03;;;22.40;94.50;;;;;;4952503;28;20175;-79
2021/08/20 15:56:14;;;;;;;3.40;3.10;;;22.20;95.30;;;;;;4954274;28;20178;-78
2021/08/20 15:58:39;;;;;;;5.33;2.83;;;21.80;95.30;;;;;;4952984;29;20560;-78
2021/08/20 16:01:05;;;;;;;2.37;2.17;;;21.30;95.60;;;;;;4954194;28;20848;-78
2021/08/20 16:03:30;;;;;;;4.90;2.90;;;21.20;96.30;;;;;;4952262;29;20175;-78
2021/08/20 16:05:55;;;;;;;7.07;2.47;;;21.00;96.30;;;;;;4954149;28;20540;-78
2021/08/20 16:08:21;;;;;;;6.03;2.90;;;21.10;96.20;;;;;;4954209;28;20171;-78
2021/08/20 16:10:47;;;;;;;2.43;2.20;;;20.90;96.30;;;;;;4954084;28;20194;-78
2021/08/20 16:13:12;;;;;;;3.70;2.17;;;20.80;96.30;;;;;;4953572;28;20258;-78
2021/08/20 16:15:38;;;;;;;2.90;2.33;;;20.70;96.30;;;;;;4954132;28;20545;-78
2021/08/20 16:18:04;;;;;;;2.53;2.33;;;20.60;96.30;;;;;;4952657;29;20698;-78
2021/08/20 16:20:29;;;;;;;2.27;2.07;;;20.50;96.30;;;;;;4953972;28;20262;-78
2021/08/20 16:22:55;;;;;;;2.33;2.10;;;20.20;96.30;;;;;;4952056;29;20205;-78
2021/08/20 16:25:20;;;;;;;4.87;2.50;;;20.20;96.30;;;;;;4952725;28;20546;-79
2021/08/20 16:27:46;;;;;;;2.17;1.97;;;20.00;96.30;;;;;;4953833;28;20241;-78
2021/08/20 16:30:12;;;;;;;4.60;2.43;;;20.00;96.30;;;;;;4953851;28;20547;-78
2021/08/20 16:32:38;;;;;;;3.87;2.77;;;20.00;96.30;;;;;;4956912;28;20763;-78
2021/08/20 16:35:05;;;;;;;5.37;2.33;;;20.00;96.30;;;;;;4957707;28;20498;-78
2021/08/20 16:37:31;;;;;;;3.00;2.30;;;20.00;96.30;;;;;;4956454;28;20422;-78
2021/08/20 16:40:00;;;;;;;3.40;2.60;;;20.00;96.30;;;;;;4957685;28;20458;-78
2021/08/20 16:42:25;;;;;;;4.03;2.80;;;20.10;96.30;;;;;;4955892;28;20461;-78
2021/08/20 16:44:51;;;;;;;6.17;2.70;;;20.10;96.30;;;;;;4957730;28;20788;-79
2021/08/20 16:47:16;;;;;;;4.00;3.60;;;20.00;96.30;;;;;;4957552;28;20541;-78
2021/08/20 16:49:42;;;;;;;3.63;3.30;;;20.00;96.30;;;;;;4957643;28;20199;-78
2021/08/20 16:52:07;;;;;;;3.70;2.73;;;20.00;96.30;;;;;;4956970;28;20349;-79
2021/08/20 16:54:33;;;;;;;4.03;3.67;;;19.90;96.30;;;;;;4957613;28;20179;-78
2021/08/20 16:56:59;;;;;;;8.43;3.10;;;19.90;96.30;;;;;;4957520;28;20205;-78
2021/08/20 16:59:24;;;;;;;4.03;2.90;;;19.90;96.30;;;;;;4957467;28;20450;-78
2021/08/20 17:01:51;;;;;;;3.60;2.90;;;19.90;96.30;;;;;;4956654;28;20190;-78
2021/08/20 17:04:16;;;;;;;3.70;3.40;;;19.90;96.30;;;;;;4957626;28;20249;-78
2021/08/20 17:06:42;;;;;;;4.00;3.53;;;19.80;96.30;;;;;;4957404;28;20545;-79
2021/08/20 17:09:07;;;;;;;8.77;4.00;;;19.60;96.30;;;;;;4956055;28;20182;-78
2021/08/20 17:11:33;;;;;;;7.83;3.60;;;19.50;96.30;;;;;;4956675;28;20281;-78
2021/08/20 17:13:58;;;;;;;6.50;4.10;;;19.40;96.30;;;;;;4957212;28;20635;-78
2021/08/20 17:16:24;;;;;;;6.17;4.10;;;19.40;96.30;;;;;;4957045;28;20258;-78
2021/08/20 17:18:49;;;;;;;5.67;3.87;;;19.30;96.30;;;;;;4957073;28;20289;-78
2021/08/20 17:21:16;;;;;;;3.80;3.30;;;19.30;96.30;;;;;;4956993;28;20667;-78
2021/08/20 17:23:43;;;;;;;4.10;3.80;;;19.20;96.30;;;;;;4955120;28;20678;-78
2021/08/20 17:26:09;;;;;;;10.00;4.53;;;19.10;96.30;;;;;;4956898;28;20446;-78
2021/08/20 17:28:34;;;;;;;8.53;3.70;;;19.10;96.30;;;;;;4956967;28;20457;-78
2021/08/20 17:31:00;;;;;;;9.70;3.70;;;19.10;96.30;;;;;;4956628;28;20226;-80
2021/08/20 17:33:26;;;;;;;9.30;3.77;;;19.10;96.30;;;;;;4956230;28;20245;-78
2021/08/20 17:35:51;;;;;;;4.10;3.80;;;18.90;96.30;;;;;;4956691;28;20933;-78
2021/08/20 17:38:17;;;;;;;4.50;4.00;;;18.80;96.30;;;;;;4956797;28;20254;-79
2021/08/20 17:40:42;;;;;;;7.80;4.43;;;18.70;96.30;;;;;;4956702;28;20203;-78
2021/08/20 17:43:08;;;;;;;4.43;4.03;;;18.70;96.30;;;;;;4955446;28;20249;-78
2021/08/20 17:45:34;;;;;;;8.70;3.80;;;18.60;96.30;;;;;;4956581;28;20531;-78
2021/08/20 17:47:59;;;;;;;4.60;3.90;;;18.40;96.30;;;;;;4956586;28;20245;-79
2021/08/20 17:50:26;;;;;;;4.23;3.83;;;18.40;96.30;;;;;;4956475;28;20179;-78
2021/08/20 17:52:53;;;;;;;5.73;4.57;;;18.30;96.30;;;;;;4955932;28;20230;-79
2021/08/20 17:55:19;;;;;;;4.23;3.80;;;18.30;96.30;;;;;;4956248;28;20414;-78
2021/08/20 17:57:45;;;;;;;5.77;3.90;;;18.20;96.30;;;;;;4956344;28;20411;-78
2021/08/20 18:00:11;;;;;;;4.33;3.93;;;18.10;96.30;;;;;;4956291;28;20254;-78
2021/08/20 18:02:37;;;;;;;4.77;3.93;;;18.00;96.30;;;;;;4955586;28;20172;-78
2021/08/20 18:05:03;;;;;;;4.43;4.03;;;17.80;96.30;;;;;;4956446;28;20180;-78
2021/08/20 18:07:29;;;;;;;4.23;3.83;;;17.70;96.30;;;;;;4956120;28;20426;-79
2021/08/20 18:09:54;;;;;;;7.77;4.00;;;17.60;96.30;;;;;;4956215;28;20189;-78
2021/08/20 18:12:21;;;;;;;8.27;3.70;;;17.40;96.30;;;;;;4955552;28;20206;-79
2021/08/20 18:14:46;;;;;;;5.43;3.80;;;17.30;96.30;;;;;;4956036;28;20186;-78
2021/08/20 18:17:12;;;;;;;4.83;3.77;;;17.20;96.30;;;;;;4956073;28;20418;-79
2021/08/20 18:19:38;;;;;;;4.70;4.30;;;17.10;96.30;;;;;;4955943;28;20214;-78
2021/08/20 18:22:04;;;;;;;7.50;4.27;;;17.10;96.30;;;;;;4955380;28;20195;-78
2021/08/20 18:24:30;;;;;;;4.23;3.83;;;17.00;96.30;;;;;;4954657;29;20197;-78
2021/08/20 18:26:55;;;;;;;5.20;4.23;;;16.90;96.30;;;;;;4955808;28;20781;-78
2021/08/20 18:29:22;;;;;;;4.97;4.57;;;16.80;96.30;;;;;;4954452;28;20182;-78
2021/08/20 18:31:48;;;;;;;5.70;4.30;;;16.80;96.30;;;;;;4954855;28;20199;-78
2021/08/20 18:34:14;;;;;;;4.97;3.93;;;16.60;96.30;;;;;;4955625;28;20983;-78
2021/08/20 18:36:43;;;;;;;5.03;4.47;;;16.50;96.30;;;;;;4955649;28;20411;-78